Kendrick, Idaho
Current Conditions -  °F | °C
As of 8:56 AM on Thursday 30 Oct 2014 (Local Time) from KLWS Reporting Station
Overcast Overcast  
Wind Chill: 52°   Ceiling: 9500
Heat Index: 52°   Visibility: 10mi
Dew Point: 46°   Wind: 5mph
Humidity: 80%   Direction: 110°ESE
Pressure: 30.1"   Gusts: NA
Location:  46.61°N, 116.65°W
Report Text: KLWS 301556Z 11004KT 10SM OVC095 11/08 A3010 RMK AO2 SLP193 T01110078
Loading
Personal Weather Stations






























Interactive Weather Map
Tropical Storm Tracking
New forecast layout! Learn more

10-Day Weather Forecast

Advertisements
Track Severe Weather on mobile